Time;durP1;ratioP1;P1;durP2;ratioP2;P2;SDS_P1;SDS_P2;PMS_P1;PMS_P2;Temp;Humidity;BMP_temperature;BMP_pressure;BME280_temperature;BME280_humidity;BME280_pressure;Samples;Min_cycle;Max_cycle;Signal;HPM_P1;HPM_P2
2023/10/12 00:01:14;;;;;;;;;4.00;4.00;;;;;22.51;49.63;100014.66;110359;1247;19637;-79
2023/10/12 00:03:44;;;;;;;;;4.67;4.00;;;;;22.54;49.44;100019.00;110333;1262;22671;-79
2023/10/12 00:06:13;;;;;;;;;2.00;2.00;;;;;22.52;49.42;100028.95;110316;1252;22220;-79
2023/10/12 00:08:41;;;;;;;;;4.00;4.00;;;;;22.54;49.42;100024.46;110342;1247;19669;-78
2023/10/12 00:11:08;;;;;;;;;5.00;4.00;;;;;22.51;49.56;100030.02;110391;1262;19915;-78
2023/10/12 00:13:41;;;;;;;;;4.00;4.00;;;;;22.50;49.51;100028.16;110380;1247;20917;-78
2023/10/12 00:16:09;;;;;;;;;1.50;1.50;;;;;22.54;49.35;100024.34;110406;1262;18290;-79
2023/10/12 00:18:38;;;;;;;;;2.00;2.00;;;;;22.53;49.32;100016.83;110418;1262;18520;-79
2023/10/12 00:21:14;;;;;;;;;5.00;5.00;;;;;22.54;49.34;100010.64;110397;1262;22341;-79
2023/10/12 00:23:44;;;;;;;;;2.00;2.00;;;;;22.52;49.53;100009.05;110379;1262;21438;-78
2023/10/12 00:26:13;;;;;;;;;2.00;2.00;;;;;22.51;49.36;100003.32;110376;1262;18945;-79
2023/10/12 00:28:44;;;;;;;;;4.00;4.00;;;;;22.52;49.25;100006.09;110362;1246;20758;-78
2023/10/12 00:31:17;;;;;;;;;5.00;4.00;;;;;22.51;49.46;100002.07;110430;1247;22690;-78
2023/10/12 00:33:48;;;;;;;;;2.00;2.00;;;;;22.51;49.35;100000.66;110408;1262;20654;-80
2023/10/12 00:36:21;;;;;;;;;3.00;2.00;;;;;22.49;49.48;99993.86;110391;1262;21579;-81
2023/10/12 00:38:49;;;;;;;;;2.00;2.00;;;;;22.51;49.18;99983.13;110276;1263;18412;-80
2023/10/12 00:41:17;;;;;;;;;4.00;2.00;;;;;22.52;49.21;99977.33;110483;1262;18637;-81
2023/10/12 00:43:48;;;;;;;;;4.00;4.00;;;;;22.51;49.20;99980.17;110470;1247;19378;-80
2023/10/12 00:46:21;;;;;;;;;5.00;4.00;;;;;22.50;49.20;99975.05;110416;1262;18444;-81
2023/10/12 00:48:49;;;;;;;;;2.00;2.00;;;;;22.51;49.19;99971.66;110413;1262;18670;-81
2023/10/12 00:51:17;;;;;;;;;4.00;4.00;;;;;22.48;49.37;99970.56;110400;1247;19804;-80
2023/10/12 00:53:55;;;;;;;;;4.00;4.00;;;;;22.46;49.51;99967.55;110382;1262;19805;-80
2023/10/12 00:56:23;;;;;;;;;2.67;2.00;;;;;22.49;49.34;99962.04;110224;1263;19984;-80
2023/10/12 00:58:54;;;;;;;;;2.00;2.00;;;;;22.48;49.27;99961.45;110392;1246;21925;-79
2023/10/12 01:01:23;;;;;;;;;2.00;2.00;;;;;22.50;49.49;99962.17;110426;1262;18417;-79
2023/10/12 01:03:52;;;;;;;;;4.00;4.00;;;;;22.53;49.10;99963.27;110403;1247;20372;-79
2023/10/12 01:06:28;;;;;;;;;2.00;2.00;;;;;22.51;49.33;99966.98;110199;1263;19218;-78
2023/10/12 01:08:58;;;;;;;;;2.00;2.00;;;;;22.51;49.15;99965.95;110376;1262;18351;-78
2023/10/12 01:11:26;;;;;;;;;2.00;2.00;;;;;22.51;49.14;99958.95;110392;1262;18585;-79
2023/10/12 01:14:05;;;;;;;;;2.00;2.00;;;;;22.50;49.22;99964.14;110351;1257;21633;-79
2023/10/12 01:16:45;;;;;;;;;2.00;2.00;;;;;22.53;49.20;99963.34;110359;1262;18370;-78
2023/10/12 01:19:20;;;;;;;;;2.00;2.00;;;;;22.52;49.12;99964.94;110366;1262;18618;-79
2023/10/12 01:21:48;;;;;;;;;4.00;4.00;;;;;22.49;49.06;99959.85;110197;1247;20716;-79
2023/10/12 01:24:16;;;;;;;;;2.00;2.00;;;;;22.50;49.18;99962.08;110395;1262;18395;-79
2023/10/12 01:26:44;;;;;;;;;3.00;3.00;;;;;22.50;49.20;99959.13;110382;1262;18615;-78
2023/10/12 01:29:19;;;;;;;;;2.00;2.00;;;;;22.46;49.16;99958.76;110394;1262;19329;-79
2023/10/12 01:31:52;;;;;;;;;2.00;2.00;;;;;22.50;48.97;99957.94;110361;1246;22104;-78
2023/10/12 01:34:24;;;;;;;;;2.00;2.00;;;;;22.51;49.15;99947.80;110398;1262;18533;-78
2023/10/12 01:36:52;;;;;;;;;2.00;2.00;;;;;22.50;48.93;99947.73;110409;1261;19367;-79
2023/10/12 01:39:20;;;;;;;;;2.00;2.00;;;;;22.47;49.08;99948.10;110436;1247;19733;-78
2023/10/12 01:41:51;;;;;;;;;2.00;2.00;;;;;22.50;49.04;99944.01;110392;1247;22351;-79
2023/10/12 01:44:19;;;;;;;;;2.00;2.00;;;;;22.52;49.13;99944.52;110176;1262;19335;-79
2023/10/12 01:46:49;;;;;;;;;4.00;4.00;;;;;22.48;49.05;99946.83;110385;1248;22162;-79
2023/10/12 01:49:17;;;;;;;;;2.00;2.00;;;;;22.49;49.18;99940.30;110392;1247;21224;-78
2023/10/12 01:51:46;;;;;;;;;4.00;4.00;;;;;22.50;48.99;99942.92;110399;1254;22828;-78
2023/10/12 01:54:14;;;;;;;;;4.00;4.00;;;;;22.48;49.24;99940.38;110373;1262;20020;-78
2023/10/12 01:56:41;;;;;;;;;2.00;2.00;;;;;22.51;49.10;99937.27;110419;1246;20044;-79
2023/10/12 01:59:09;;;;;;;;;2.00;2.00;;;;;22.49;49.10;99939.76;110465;1262;19387;-79
2023/10/12 02:01:42;;;;;;;;;4.00;4.00;;;;;22.50;49.07;99941.98;110415;1262;18625;-78
2023/10/12 02:04:09;;;;;;;;;2.00;2.00;;;;;22.49;49.01;99945.50;110432;1262;21115;-78
2023/10/12 02:06:39;;;;;;;;;3.33;2.00;;;;;22.47;49.23;99945.27;110445;1262;19334;-79
2023/10/12 02:09:09;;;;;;;;;3.33;2.00;;;;;22.46;49.16;99944.56;110431;1262;18365;-78
2023/10/12 02:11:42;;;;;;;;;2.00;2.00;;;;;22.48;49.19;99948.35;110157;1262;20234;-78
2023/10/12 02:14:12;;;;;;;;;2.00;2.00;;;;;22.46;49.21;99943.30;110361;1246;19358;-79
2023/10/12 02:16:39;;;;;;;;;3.33;2.00;;;;;22.47;49.26;99942.52;110345;1247;19711;-79
2023/10/12 02:19:08;;;;;;;;;5.00;4.00;;;;;22.42;49.37;99941.48;110343;1247;21166;-78
2023/10/12 02:21:37;;;;;;;;;2.00;2.00;;;;;22.44;49.15;99947.48;110268;1256;19204;-78
2023/10/12 02:24:12;;;;;;;;;2.00;2.00;;;;;22.48;49.22;99945.23;110400;1247;19611;-79
2023/10/12 02:26:51;;;;;;;;;2.00;2.00;;;;;22.50;49.11;99939.89;110394;1247;22844;-79
2023/10/12 02:29:18;;;;;;;;;2.00;2.00;;;;;22.51;48.84;99935.86;110342;1262;22353;-79
2023/10/12 02:31:58;;;;;;;;;2.00;2.00;;;;;22.50;49.11;99932.77;110371;1247;19643;-80
2023/10/12 02:34:26;;;;;;;;;2.00;2.00;;;;;22.49;49.15;99941.26;110367;1256;18622;-79
2023/10/12 02:37:16;;;;;;;;;2.67;2.67;;;;;22.47;48.98;99932.70;110343;1248;20756;-79
2023/10/12 02:39:43;;;;;;;;;2.00;2.00;;;;;22.45;49.07;99925.22;110342;1262;18407;-81
2023/10/12 02:42:17;;;;;;;;;2.00;2.00;;;;;22.46;49.07;99927.33;110340;1262;18617;-81
2023/10/12 02:44:57;;;;;;;;;2.00;2.00;;;;;22.44;49.01;99930.86;110369;1262;19409;-80
2023/10/12 02:47:24;;;;;;;;;4.00;2.00;;;;;22.44;48.88;99932.59;110365;1262;18286;-78
2023/10/12 02:49:59;;;;;;;;;4.00;4.00;;;;;22.42;49.01;99928.94;110365;1247;20301;-80
2023/10/12 02:52:30;;;;;;;;;4.00;2.00;;;;;22.44;49.16;99931.62;110417;1254;21036;-80
2023/10/12 02:54:58;;;;;;;;;2.00;2.00;;;;;22.42;49.31;99930.96;110400;1262;18530;-79
2023/10/12 02:57:25;;;;;;;;;1.00;1.00;;;;;22.46;49.00;99930.38;110451;1262;18930;-79
2023/10/12 02:59:57;;;;;;;;;2.00;2.00;;;;;22.44;48.99;99930.09;110388;1247;20729;-79
2023/10/12 03:02:32;;;;;;;;;6.00;4.00;;;;;22.47;48.84;99931.34;110407;1246;18530;-80
2023/10/12 03:04:59;;;;;;;;;2.00;2.00;;;;;22.47;49.12;99931.45;110368;1254;19984;-80
2023/10/12 03:07:28;;;;;;;;;4.00;2.00;;;;;22.50;48.75;99924.58;110389;1247;20745;-80
2023/10/12 03:09:58;;;;;;;;;1.33;1.33;;;;;22.48;49.00;99925.20;110353;1254;22782;-80
2023/10/12 03:12:25;;;;;;;;;4.00;2.00;;;;;22.46;48.93;99927.48;110397;1262;18618;-78
2023/10/12 03:14:53;;;;;;;;;2.00;2.00;;;;;22.45;48.94;99930.95;110407;1247;20721;-79
2023/10/12 03:17:23;;;;;;;;;2.00;2.00;;;;;22.45;48.89;99927.27;110352;1247;19629;-79
2023/10/12 03:19:56;;;;;;;;;1.00;1.00;;;;;22.48;48.88;99926.48;110174;1262;18684;-79
2023/10/12 03:22:31;;;;;;;;;1.00;1.00;;;;;22.48;48.90;99923.63;110350;1262;19326;-79
2023/10/12 03:25:05;;;;;;;;;2.00;2.00;;;;;22.49;48.99;99920.45;110370;1246;19635;-80
2023/10/12 03:27:49;;;;;;;;;2.00;2.00;;;;;22.47;48.87;99927.69;110410;1262;22302;-78
2023/10/12 03:30:17;;;;;;;;;3.00;2.00;;;;;22.48;48.94;99923.04;110384;1262;19339;-81
2023/10/12 03:32:45;;;;;;;;;4.00;2.00;;;;;22.47;49.06;99924.13;110330;1262;22658;-81
2023/10/12 03:35:23;;;;;;;;;2.00;2.00;;;;;22.47;48.89;99918.35;110357;1247;21511;-81
2023/10/12 03:38:00;;;;;;;;;1.00;1.00;;;;;22.46;48.89;99914.83;110345;1254;19254;-78
2023/10/12 03:43:25;;;;;;;;;2.00;2.00;;;;;22.45;48.86;99920.09;110383;1260;18648;-78
2023/10/12 03:46:07;;;;;;;;;2.00;2.00;;;;;22.47;48.84;99922.71;110404;1247;20861;-79
2023/10/12 03:48:49;;;;;;;;;2.00;2.00;;;;;22.46;49.01;99918.27;110382;1260;18377;-79
2023/10/12 03:51:37;;;;;;;;;3.33;2.00;;;;;22.46;49.09;99919.74;110385;1246;20057;-79
2023/10/12 03:54:11;;;;;;;;;4.00;2.00;;;;;22.46;48.96;99919.67;110365;1244;22146;-79
2023/10/12 03:56:40;;;;;;;;;1.50;1.50;;;;;22.48;48.77;99919.92;110395;1260;18399;-79
2023/10/12 03:59:07;;;;;;;;;2.00;2.00;;;;;22.46;48.99;99909.15;110410;1245;20859;-79
2023/10/12 04:01:40;;;;;;;;;2.00;2.00;;;;;22.47;48.77;99907.11;110392;1260;22148;-79
2023/10/12 04:04:20;;;;;;;;;1.00;1.00;;;;;22.47;48.97;99906.30;110379;1245;18241;-78
2023/10/12 04:07:15;;;;;;;;;4.00;2.00;;;;;22.47;48.83;99908.04;110395;1260;21392;-78
2023/10/12 04:09:43;;;;;;;;;2.00;2.00;;;;;22.47;48.85;99910.06;110436;1260;20648;-78
2023/10/12 04:12:30;;;;;;;;;4.00;2.00;;;;;22.47;48.70;99909.52;110358;1260;22515;-79
2023/10/12 04:14:58;;;;;;;;;2.00;2.00;;;;;22.45;48.84;99905.29;110378;1245;18733;-79
2023/10/12 04:17:47;;;;;;;;;2.00;2.00;;;;;22.47;48.84;99902.09;110366;1260;21662;-79
2023/10/12 04:20:22;;;;;;;;;2.00;2.00;;;;;22.46;48.93;99905.77;110353;1260;18454;-79
2023/10/12 04:25:45;;;;;;;;;2.00;2.00;;;;;22.43;49.00;99922.30;110433;1260;19331;-78
2023/10/12 04:28:18;;;;;;;;;2.00;2.00;;;;;22.45;48.90;99925.00;110445;1248;22091;-79
2023/10/12 04:33:28;;;;;;;;;2.00;2.00;;;;;22.47;48.75;99932.00;110373;1260;20681;-79
2023/10/12 04:39:11;;;;;;;;;2.00;2.00;;;;;22.51;48.79;99944.98;107105;1302;19130;-38
2023/10/12 04:41:41;;;;;;;;;2.00;2.00;;;;;22.47;48.93;99945.77;108712;1277;18363;-38
2023/10/12 04:44:35;;;;;;;;;2.00;2.00;;;;;22.45;48.75;99950.98;108730;1264;19743;-38
2023/10/12 04:47:05;;;;;;;;;2.00;2.00;;;;;22.43;48.95;99950.68;108724;1277;19163;-38
2023/10/12 04:52:32;;;;;;;;;1.33;1.33;;;;;22.50;48.78;99954.54;108487;1263;200618;-38
2023/10/12 04:58:10;;;;;;;;;2.00;2.00;;;;;22.50;49.70;99972.61;108533;1275;18376;-38
2023/10/12 05:00:55;;;;;;;;;44.00;40.50;;;;;22.53;50.55;99974.04;108614;1275;18168;-38
2023/10/12 05:03:34;;;;;;;;;54.50;43.00;;;;;22.53;51.25;99987.45;108590;1260;19753;-38
2023/10/12 05:06:13;;;;;;;;;29.00;26.00;;;;;22.52;52.27;99982.18;108602;1275;18368;-38
2023/10/12 05:08:41;;;;;;;;;23.00;20.00;;;;;22.53;52.26;99991.50;108565;1263;19978;-38
2023/10/12 05:11:09;;;;;;;;;19.00;16.00;;;;;22.49;52.52;99996.52;108699;1262;18134;-38
2023/10/12 05:13:43;;;;;;;;;23.00;20.00;;;;;22.51;51.76;99999.77;108785;1273;22212;-38
2023/10/12 05:16:10;;;;;;;;;20.00;16.00;;;;;22.56;51.75;100003.45;108810;1259;20004;-38
2023/10/12 05:18:37;;;;;;;;;16.00;13.00;;;;;22.56;51.88;100005.96;108790;1273;18108;-38
2023/10/12 05:21:08;;;;;;;;;14.00;10.50;;;;;22.55;51.52;100016.20;108751;1260;19995;-38
2023/10/12 05:23:35;;;;;;;;;12.00;11.00;;;;;22.56;51.78;100016.66;108855;1272;18730;-37
2023/10/12 05:26:09;;;;;;;;;16.33;12.00;;;;;22.55;52.13;100017.89;108811;1257;19404;-37
2023/10/12 05:28:38;;;;;;;;;10.00;10.00;;;;;22.60;52.09;100015.50;108810;1257;19889;-38
2023/10/12 05:31:13;;;;;;;;;9.50;9.50;;;;;22.66;52.06;100016.76;108852;1257;20088;-39
2023/10/12 05:33:43;;;;;;;;;9.67;9.67;;;;;22.67;52.36;100025.80;108786;1257;19230;-38
2023/10/12 05:36:10;;;;;;;;;10.00;9.50;;;;;22.66;52.34;100023.37;108805;1272;18449;-38
2023/10/12 05:38:38;;;;;;;;;;;;;;;22.64;52.36;100033.56;108814;1257;21845;-37
2023/10/12 05:41:08;;;;;;;;;9.33;8.33;;;;;22.62;52.56;100042.44;108940;1272;17419;-38
2023/10/12 05:43:36;;;;;;;;;8.00;8.00;;;;;22.63;52.35;100047.55;108921;1257;19882;-38
2023/10/12 05:46:10;;;;;;;;;5.00;5.00;;;;;22.58;52.14;100057.34;108921;1259;19670;-38
2023/10/12 05:48:40;;;;;;;;;9.00;8.00;;;;;22.57;52.26;100056.82;108931;1272;17795;-39
2023/10/12 05:51:09;;;;;;;;;8.00;6.00;;;;;22.54;52.13;100068.94;108917;1266;19776;-38
2023/10/12 05:53:37;;;;;;;;;5.00;5.00;;;;;22.53;51.93;100069.12;108887;1257;19613;-39
2023/10/12 05:56:06;;;;;;;;;6.00;6.00;;;;;22.56;51.86;100071.53;108891;1272;19451;-37
2023/10/12 05:58:33;;;;;;;;;5.50;5.00;;;;;22.58;52.02;100074.48;108905;1266;19730;-37
2023/10/12 06:01:08;;;;;;;;;8.00;8.00;;;;;22.57;51.80;100072.81;108911;1272;19541;-39
2023/10/12 06:03:36;;;;;;;;;8.00;6.00;;;;;22.57;51.74;100097.92;108877;1272;17802;-39
2023/10/12 06:06:03;;;;;;;;;5.00;5.00;;;;;22.55;51.99;100106.27;108944;1257;20686;-38
2023/10/12 06:08:32;;;;;;;;;5.00;5.00;;;;;22.54;51.87;100108.89;108924;1272;18179;-39
2023/10/12 06:11:00;;;;;;;;;5.50;5.00;;;;;22.56;51.36;100113.73;109105;1257;19233;-38
2023/10/12 06:13:32;;;;;;;;;5.00;5.00;;;;;22.55;51.44;100107.67;109162;1256;19790;-38
2023/10/12 06:15:59;;;;;;;;;5.00;5.00;;;;;22.53;51.53;100102.70;109185;1272;18222;-38
2023/10/12 06:18:30;;;;;;;;;5.00;5.00;;;;;22.53;51.32;100109.18;109117;1256;17787;-38
2023/10/12 06:20:59;;;;;;;;;5.00;5.00;;;;;22.50;51.35;100103.50;109165;1258;19810;-38
2023/10/12 06:23:28;;;;;;;;;5.00;4.67;;;;;22.50;51.15;100094.60;109091;1264;19823;-39
2023/10/12 06:25:56;;;;;;;;;4.00;4.00;;;;;22.49;51.02;100091.40;109105;1256;19276;-39
2023/10/12 06:28:24;;;;;;;;;5.00;4.00;;;;;22.51;51.05;100096.73;109102;1257;19824;-38
2023/10/12 06:30:52;;;;;;;;;3.00;3.00;;;;;22.52;51.09;100102.00;109101;1272;18593;-38
2023/10/12 06:33:22;;;;;;;;;2.00;2.00;;;;;22.52;50.83;100104.34;109184;1257;19356;-38
2023/10/12 06:36:01;;;;;;;;;4.00;4.00;;;;;22.50;50.72;100114.09;109102;1257;20065;-38
2023/10/12 06:38:38;;;;;;;;;4.00;2.00;;;;;22.48;50.88;100112.70;109109;1256;20552;-39
2023/10/12 06:46:43;;;;;;;;;3.33;2.00;;;;;22.48;50.63;100107.85;109081;1270;19628;-39
2023/10/12 06:49:16;;;;;;;;;4.00;2.67;;;;;22.48;50.60;100117.17;109072;1271;17827;-38
2023/10/12 06:51:53;;;;;;;;;4.00;4.00;;;;;22.48;50.51;100132.64;109104;1271;20014;-38
2023/10/12 06:54:31;;;;;;;;;4.00;4.00;;;;;22.45;50.46;100141.13;109108;1258;19682;-38
2023/10/12 06:57:29;;;;;;;;;4.00;4.00;;;;;22.44;50.71;100150.64;109175;1257;19227;-39
2023/10/12 06:59:54;;;;;;;;;3.00;3.00;;;;;22.45;50.70;100157.99;109127;1272;19797;-39
2023/10/12 07:02:24;;;;;;;;;2.00;2.00;;;;;22.46;50.55;100167.25;109090;1272;18236;-39
2023/10/12 07:04:54;;;;;;;;;3.00;2.00;;;;;22.44;50.64;100158.73;109177;1271;19066;-38
2023/10/12 07:07:26;;;;;;;;;1.00;1.00;;;;;22.44;50.78;100165.33;109122;1266;19681;-38
2023/10/12 07:09:54;;;;;;;;;1.00;1.00;;;;;22.41;50.50;100172.73;109194;1266;18138;-38
2023/10/12 07:12:23;;;;;;;;;2.00;1.00;;;;;22.34;50.24;100177.04;109159;1256;19195;-39
2023/10/12 07:14:53;;;;;;;;;2.00;2.00;;;;;22.30;50.29;100183.15;109083;1256;19811;-39
2023/10/12 07:17:27;;;;;;;;;2.00;2.00;;;;;22.28;50.40;100183.61;109101;1272;21600;-38
2023/10/12 07:19:54;;;;;;;;;3.00;2.00;;;;;22.30;50.51;100190.95;109144;1255;19228;-38
2023/10/12 07:22:22;;;;;;;;;2.00;2.00;;;;;22.27;50.32;100185.39;109086;1256;19757;-38
2023/10/12 07:24:53;;;;;;;;;2.00;2.00;;;;;22.22;50.69;100190.36;109143;1272;18215;-37
2023/10/12 07:27:22;;;;;;;;;2.00;2.00;;;;;22.18;50.59;100191.94;109178;1257;19205;-38
2023/10/12 07:30:02;;;;;;;;;1.33;1.33;;;;;22.18;50.60;100198.77;109143;1256;19829;-38
2023/10/12 07:32:38;;;;;;;;;8.00;4.00;;;;;22.18;50.54;100201.88;109056;1256;19674;-38
2023/10/12 07:35:11;;;;;;;;;1.00;1.00;;;;;22.21;50.53;100195.61;109102;1256;19190;-38
2023/10/12 07:37:42;;;;;;;;;2.00;1.50;;;;;22.19;50.31;100204.21;109089;1257;19825;-38
2023/10/12 07:40:17;;;;;;;;;2.00;2.00;;;;;22.19;50.49;100208.77;109095;1256;19623;-39
2023/10/12 07:42:46;;;;;;;;;2.00;2.00;;;;;22.19;50.20;100211.95;109182;1271;17791;-38
2023/10/12 07:45:14;;;;;;;;;4.00;3.00;;;;;22.17;50.20;100215.36;109033;1272;21919;-39
2023/10/12 07:47:42;;;;;;;;;2.00;2.00;;;;;22.14;50.45;100214.41;109116;1263;19718;-39
2023/10/12 07:50:11;;;;;;;;;5.00;4.00;;;;;22.15;50.32;100226.79;109117;1272;20435;-38
2023/10/12 07:52:46;;;;;;;;;2.00;2.00;;;;;22.14;50.04;100243.27;109182;1256;20602;-38
2023/10/12 07:55:15;;;;;;;;;3.33;1.67;;;;;22.10;50.10;100241.41;109193;1256;19675;-38
2023/10/12 07:57:42;;;;;;;;;2.00;2.00;;;;;22.05;50.16;100241.25;109196;1255;19268;-38
2023/10/12 08:03:17;;;;;;;;;1.50;1.50;;;;;22.06;49.90;100246.80;109042;1256;19640;-39
2023/10/12 08:05:56;;;;;;;;;2.00;2.00;;;;;22.04;50.11;100245.47;109101;1256;20621;-38
2023/10/12 08:08:37;;;;;;;;;4.00;4.00;;;;;22.01;50.09;100254.80;109102;1256;20360;-38
2023/10/12 08:11:18;;;;;;;;;4.00;4.00;;;;;22.00;50.39;100245.77;108896;1272;19490;-39
2023/10/12 08:13:49;;;;;;;;;4.00;2.00;;;;;22.02;50.17;100261.85;108935;1272;17838;-39
2023/10/12 08:16:25;;;;;;;;;4.00;4.00;;;;;22.01;50.15;100270.02;108957;1257;19882;-38
2023/10/12 08:21:59;;;;;;;;;2.00;2.00;;;;;22.04;49.90;100254.67;108800;1262;19308;-38
2023/10/12 08:24:29;;;;;;;;;4.00;4.00;;;;;22.06;49.84;100251.18;108836;1269;19916;-39
2023/10/12 08:27:00;;;;;;;;;2.00;2.00;;;;;22.06;49.65;100261.75;108778;1275;19284;-39
2023/10/12 08:32:15;;;;;;;;;4.00;2.00;;;;;22.05;49.93;100283.27;108777;1269;20521;-38
2023/10/12 08:35:10;;;;;;;;;2.00;2.00;;;;;22.04;50.08;100280.77;108832;1260;19746;-39
2023/10/12 08:37:56;;;;;;;;;4.00;2.00;;;;;22.05;49.82;100285.60;109627;1269;19155;-38
2023/10/12 08:40:26;;;;;;;;;5.00;2.00;;;;;22.05;50.00;100294.01;109610;1253;21158;-39
2023/10/12 08:42:58;;;;;;;;;2.00;2.00;;;;;22.05;49.89;100292.21;109539;1253;19673;-39
2023/10/12 08:45:27;;;;;;;;;2.00;2.00;;;;;22.05;50.13;100305.08;109625;1253;19245;-38
2023/10/12 08:48:01;;;;;;;;;2.00;2.00;;;;;22.01;50.04;100338.64;109588;1253;19837;-38
2023/10/12 08:50:58;;;;;;;;;4.00;4.00;;;;;21.96;50.12;100326.30;109611;1253;19716;-38
2023/10/12 08:53:26;;;;;;;;;3.00;3.00;;;;;21.86;49.81;100335.13;109922;1253;21159;-39
2023/10/12 08:55:53;;;;;;;;;2.00;2.00;;;;;21.79;49.59;100352.70;110176;1251;19983;-39
2023/10/12 08:58:20;;;;;;;;;2.00;2.00;;;;;21.75;49.63;100371.49;110180;1265;21853;-39
2023/10/12 09:01:07;;;;;;;;;5.00;4.00;;;;;21.73;49.27;100372.39;110152;1253;19306;-39
2023/10/12 09:03:39;;;;;;;;;2.00;2.00;;;;;21.72;48.80;100383.23;110215;1257;20271;-39
2023/10/12 09:06:19;;;;;;;;;4.00;3.00;;;;;21.71;48.78;100378.50;110175;1259;19536;-39
2023/10/12 09:08:47;;;;;;;;;4.00;2.00;;;;;21.73;48.26;100386.12;110165;1257;19351;-39
2023/10/12 09:11:25;;;;;;;;;3.00;2.00;;;;;21.74;48.25;100390.15;110132;1252;21282;-38
2023/10/12 09:13:57;;;;;;;;;5.00;4.00;;;;;21.75;48.03;100394.62;110236;1259;19703;-39
2023/10/12 09:16:26;;;;;;;;;2.00;2.00;;;;;21.75;47.87;100394.39;110191;1251;19293;-39
2023/10/12 09:18:58;;;;;;;;;4.00;2.00;;;;;21.75;47.84;100397.28;110221;1264;18660;-39
2023/10/12 09:21:38;;;;;;;;;6.00;4.00;;;;;21.78;47.99;100400.80;110216;1259;19646;-40
2023/10/12 09:24:15;;;;;;;;;6.00;5.00;;;;;21.78;48.19;100396.60;110223;1264;19301;-39
2023/10/12 09:26:50;;;;;;;;;2.00;2.00;;;;;21.77;48.15;100395.73;110228;1264;22547;-37
2023/10/12 09:29:23;;;;;;;;;4.00;2.00;;;;;21.77;48.58;100393.50;110269;1250;20409;-37
2023/10/12 09:32:10;;;;;;;;;2.00;2.00;;;;;21.76;48.41;100397.05;110252;1259;19214;-37
2023/10/12 09:34:46;;;;;;;;;7.00;4.33;;;;;21.74;48.42;100397.95;110279;1251;18564;-37
2023/10/12 09:37:16;;;;;;;;;7.00;2.67;;;;;21.76;48.32;100401.64;110284;1259;19439;-37
2023/10/12 09:39:45;;;;;;;;;4.00;2.00;;;;;21.76;47.99;100406.27;110223;1251;21818;-38
2023/10/12 09:42:19;;;;;;;;;2.00;2.00;;;;;21.78;47.96;100407.08;110238;1265;21376;-38
2023/10/12 09:44:46;;;;;;;;;4.00;4.00;;;;;21.75;47.66;100412.94;110148;1259;19530;-38
2023/10/12 09:47:15;;;;;;;;;3.00;3.00;;;;;21.74;47.83;100415.06;110033;1253;19361;-38
2023/10/12 09:49:46;;;;;;;;;4.00;4.00;;;;;21.74;47.78;100413.65;110061;1266;18453;-38
2023/10/12 09:52:15;;;;;;;;;9.00;8.00;;;;;21.76;47.71;100415.77;110052;1253;19669;-38
2023/10/12 09:54:45;;;;;;;;;7.00;7.00;;;;;21.76;47.43;100416.79;110042;1266;17904;-38
2023/10/12 09:57:23;;;;;;;;;7.00;5.00;;;;;21.74;47.33;100422.86;110039;1253;20154;-38
2023/10/12 09:59:53;;;;;;;;;5.00;5.00;;;;;21.72;47.40;100425.27;110037;1259;19595;-39
2023/10/12 10:02:28;;;;;;;;;7.00;5.00;;;;;21.68;47.32;100434.46;110013;1266;19330;-38
2023/10/12 10:05:01;;;;;;;;;5.00;5.00;;;;;21.67;46.97;100430.81;110029;1266;18545;-38
2023/10/12 10:07:32;;;;;;;;;5.00;5.00;;;;;21.68;47.14;100433.48;110050;1266;18239;-38
2023/10/12 10:09:59;;;;;;;;;5.00;5.00;;;;;21.67;46.81;100439.27;110023;1251;19336;-39
2023/10/12 10:12:28;;;;;;;;;9.00;7.00;;;;;21.64;46.63;100441.30;110049;1260;18791;-38
2023/10/12 10:14:59;;;;;;;;;4.50;4.50;;;;;21.63;46.72;100441.58;110030;1251;19661;-38
2023/10/12 10:17:27;;;;;;;;;5.00;4.00;;;;;21.60;46.77;100441.71;110056;1266;17891;-39
2023/10/12 10:19:54;;;;;;;;;4.50;4.00;;;;;21.64;46.48;100443.27;109961;1253;20326;-39
2023/10/12 10:22:22;;;;;;;;;5.00;4.00;;;;;21.64;46.32;100439.95;110023;1266;18668;-39
2023/10/12 10:24:55;;;;;;;;;4.00;4.00;;;;;21.62;46.41;100436.56;110071;1251;19526;-38
2023/10/12 10:27:22;;;;;;;;;2.00;2.00;;;;;21.66;46.56;100431.42;110050;1251;20018;-38
2023/10/12 10:29:53;;;;;;;;;5.50;4.00;;;;;21.71;46.49;100433.19;110051;1251;19602;-37
2023/10/12 10:32:21;;;;;;;;;2.00;2.00;;;;;21.73;46.63;100435.03;110052;1258;17953;-39
2023/10/12 10:34:55;;;;;;;;;4.00;4.00;;;;;21.78;46.86;100435.15;110045;1251;18593;-38
2023/10/12 10:37:22;;;;;;;;;4.00;4.00;;;;;21.83;46.47;100429.81;110067;1266;18299;-39
2023/10/12 10:39:50;;;;;;;;;4.00;2.00;;;;;21.85;47.02;100432.48;109985;1251;18822;-39
2023/10/12 10:42:18;;;;;;;;;4.00;4.00;;;;;21.86;47.09;100437.55;110021;1253;20031;-39
2023/10/12 10:44:46;;;;;;;;;2.00;2.00;;;;;21.91;46.99;100435.98;110046;1260;19572;-39
2023/10/12 10:47:15;;;;;;;;;4.00;4.00;;;;;21.94;46.89;100435.08;110057;1266;19548;-39
2023/10/12 10:49:47;;;;;;;;;4.00;4.00;;;;;21.97;47.07;100433.64;110071;1253;21582;-38
2023/10/12 10:52:20;;;;;;;;;2.00;2.00;;;;;22.01;47.00;100424.94;110082;1259;21892;-38
2023/10/12 10:55:00;;;;;;;;;1.00;1.00;;;;;22.01;47.46;100423.78;110057;1251;22837;-38
2023/10/12 10:57:32;;;;;;;;;2.00;2.00;;;;;22.03;47.47;100424.29;110097;1251;20178;-38
2023/10/12 11:00:10;;;;;;;;;4.00;2.00;;;;;22.01;47.98;100429.14;110050;1266;18250;-40
2023/10/12 11:02:37;;;;;;;;;2.00;2.00;;;;;22.03;48.12;100429.79;110031;1253;19567;-38
2023/10/12 11:05:10;;;;;;;;;2.00;2.00;;;;;22.03;48.11;100423.69;110048;1253;20223;-38
2023/10/12 11:07:38;;;;;;;;;4.00;2.00;;;;;22.05;47.95;100417.98;110070;1253;19688;-40
2023/10/12 11:10:19;;;;;;;;;2.00;2.00;;;;;22.10;47.98;100417.46;110033;1253;21651;-39
2023/10/12 11:12:48;;;;;;;;;5.00;4.00;;;;;22.08;48.15;100412.20;110057;1266;18679;-39
2023/10/12 11:15:19;;;;;;;;;4.00;4.00;;;;;22.05;48.41;100416.52;110078;1266;18172;-39
2023/10/12 11:17:57;;;;;;;;;4.00;4.00;;;;;22.07;48.41;100423.71;110094;1260;19210;-39
2023/10/12 11:20:27;;;;;;;;;4.00;2.00;;;;;22.12;48.35;100424.81;110058;1266;18586;-39
2023/10/12 11:22:54;;;;;;;;;2.00;2.00;;;;;22.14;48.20;100424.95;110035;1251;19729;-39
2023/10/12 11:25:21;;;;;;;;;4.00;4.00;;;;;22.10;48.39;100427.71;110067;1263;17938;-41
2023/10/12 11:27:51;;;;;;;;;2.00;2.00;;;;;22.10;48.44;100428.37;110038;1251;19950;-40
2023/10/12 11:30:19;;;;;;;;;4.00;4.00;;;;;22.11;48.59;100430.00;110064;1252;19580;-39
2023/10/12 11:32:46;;;;;;;;;1.00;1.00;;;;;22.12;48.67;100428.84;110061;1266;17820;-39
2023/10/12 11:35:14;;;;;;;;;2.00;2.00;;;;;22.10;48.84;100430.71;110044;1253;22609;-38
2023/10/12 11:37:41;;;;;;;;;5.00;4.00;;;;;22.10;49.22;100433.60;110026;1266;18922;-39
2023/10/12 11:40:09;;;;;;;;;2.00;2.00;;;;;22.10;48.95;100431.20;110044;1266;19481;-39
2023/10/12 11:42:37;;;;;;;;;2.00;2.00;;;;;22.11;48.99;100431.02;110037;1251;20018;-39
2023/10/12 11:45:04;;;;;;;;;2.00;2.00;;;;;22.11;48.80;100435.61;110022;1253;19709;-39
2023/10/12 11:47:37;;;;;;;;;2.00;2.00;;;;;22.14;48.73;100432.10;110040;1252;19317;-39
2023/10/12 11:50:09;;;;;;;;;1.00;1.00;;;;;22.14;49.08;100431.44;110065;1266;18546;-39
2023/10/12 11:52:39;;;;;;;;;2.00;2.00;;;;;22.13;49.04;100428.23;110053;1251;19926;-39
2023/10/12 11:55:07;;;;;;;;;2.00;2.00;;;;;22.18;48.93;100428.40;110041;1253;19365;-39
2023/10/12 11:57:35;;;;;;;;;2.00;1.00;;;;;22.18;48.74;100426.77;110059;1254;21922;-38
2023/10/12 12:00:20;;;;;;;;;2.00;2.00;;;;;22.21;48.38;100430.94;110039;1266;22219;-39
2023/10/12 12:02:47;;;;;;;;;4.67;4.00;;;;;22.17;49.04;100440.73;110030;1259;19282;-39
2023/10/12 12:05:16;;;;;;;;;1.50;1.00;;;;;22.16;49.00;100441.79;110069;1252;20000;-39
2023/10/12 12:07:43;;;;;;;;;1.00;1.00;;;;;22.17;48.72;100445.33;110056;1266;18226;-38
2023/10/12 12:10:13;;;;;;;;;2.00;2.00;;;;;22.15;48.99;100452.17;110038;1266;19274;-39
2023/10/12 12:12:40;;;;;;;;;1.00;1.00;;;;;22.11;49.04;100447.02;110053;1250;18979;-40